Time;durP1;ratioP1;P1;durP2;ratioP2;P2;SDS_P1;SDS_P2;PMS_P1;PMS_P2;Temp;Humidity;BMP_temperature;BMP_pressure;BME280_temperature;BME280_humidity;BME280_pressure;Samples;Min_cycle;Max_cycle;Signal;HPM_P1;HPM_P2
2021/10/10 00:02:01;;;;;;;14.70;8.80;;;;;;;;;;5001254;28;20029;-61
2021/10/10 00:04:26;;;;;;;13.43;8.30;;;;;;;;;;5020138;28;20026;-63
2021/10/10 00:06:51;;;;;;;17.47;9.07;;;;;;;;;;5017001;28;20076;-63
2021/10/10 00:09:17;;;;;;;16.97;9.80;;;;;;;;;;5017396;28;20048;-63
2021/10/10 00:11:42;;;;;;;17.60;10.10;;;;;;;;;;5024086;28;20104;-63
2021/10/10 00:14:07;;;;;;;14.83;9.43;;;;;;;;;;5022126;28;20030;-64
2021/10/10 00:16:32;;;;;;;16.73;8.57;;;;;;;;;;5015590;28;20026;-64
2021/10/10 00:18:57;;;;;;;15.90;9.07;;;;;;;;;;5021591;28;20052;-63
2021/10/10 00:21:23;;;;;;;15.67;9.40;;;;;;;;;;5025376;28;20458;-64
2021/10/10 00:23:48;;;;;;;16.60;9.47;;;;;;;;;;5020025;28;20105;-64
2021/10/10 00:26:13;;;;;;;17.97;9.93;;;;;;;;;;5015523;28;20508;-63
2021/10/10 00:28:39;;;;;;;16.53;11.17;;;;;;;;;;5017523;28;20435;-63
2021/10/10 00:31:04;;;;;;;17.13;10.13;;;;;;;;;;5020717;28;20046;-63
2021/10/10 00:33:29;;;;;;;18.80;9.90;;;;;;;;;;5020645;28;20038;-63
2021/10/10 00:35:54;;;;;;;16.00;10.80;;;;;;;;;;5019133;28;20121;-64
2021/10/10 00:38:20;;;;;;;14.63;9.67;;;;;;;;;;5021315;28;20396;-63
2021/10/10 00:40:46;;;;;;;13.63;8.80;;;;;;;;;;5023417;28;20030;-64
2021/10/10 00:43:11;;;;;;;19.27;9.90;;;;;;;;;;5026932;28;20025;-64
2021/10/10 00:45:36;;;;;;;18.17;9.97;;;;;;;;;;5021461;28;20089;-64
2021/10/10 00:48:02;;;;;;;14.73;9.40;;;;;;;;;;5025370;28;20112;-64
2021/10/10 00:50:28;;;;;;;19.77;9.67;;;;;;;;;;5019497;28;20054;-62
2021/10/10 00:52:53;;;;;;;16.23;9.00;;;;;;;;;;5025748;28;20117;-64
2021/10/10 00:55:20;;;;;;;15.13;9.20;;;;;;;;;;5024131;28;20101;-64
2021/10/10 00:57:47;;;;;;;14.10;8.60;;;;;;;;;;5024388;28;20032;-63
2021/10/10 01:00:13;;;;;;;15.43;10.53;;;;;;;;;;5024612;28;20045;-63
2021/10/10 01:02:39;;;;;;;15.63;9.93;;;;;;;;;;5023403;28;20030;-61
2021/10/10 01:05:05;;;;;;;15.47;9.13;;;;;;;;;;5017504;28;20036;-62
2021/10/10 01:07:30;;;;;;;15.00;9.77;;;;;;;;;;5024870;28;20026;-62
2021/10/10 01:09:57;;;;;;;14.80;8.07;;;;;;;;;;5020648;28;20041;-62
2021/10/10 01:12:23;;;;;;;16.17;7.83;;;;;;;;;;5024634;28;20021;-61
2021/10/10 01:14:49;;;;;;;16.10;9.40;;;;;;;;;;5016657;28;20041;-62
2021/10/10 01:17:14;;;;;;;17.60;10.03;;;;;;;;;;5021958;28;20415;-61
2021/10/10 01:19:41;;;;;;;13.77;8.93;;;;;;;;;;5023186;28;20030;-62
2021/10/10 01:22:06;;;;;;;16.77;8.33;;;;;;;;;;5016750;28;20547;-61
2021/10/10 01:24:32;;;;;;;14.07;7.67;;;;;;;;;;5018876;28;20181;-61
2021/10/10 01:26:57;;;;;;;14.87;8.93;;;;;;;;;;5026160;28;20026;-61
2021/10/10 01:29:22;;;;;;;17.30;8.80;;;;;;;;;;5024834;28;20330;-61
2021/10/10 01:31:48;;;;;;;15.73;8.77;;;;;;;;;;5017609;28;20034;-61
2021/10/10 01:34:14;;;;;;;17.60;8.37;;;;;;;;;;5016790;28;20577;-61
2021/10/10 01:36:39;;;;;;;15.77;8.60;;;;;;;;;;5021578;28;20026;-61
2021/10/10 01:39:05;;;;;;;17.53;8.03;;;;;;;;;;5022296;28;20034;-61
2021/10/10 01:41:30;;;;;;;13.73;9.50;;;;;;;;;;5018251;28;20022;-61
2021/10/10 01:43:55;;;;;;;16.10;8.67;;;;;;;;;;5020397;28;20509;-61
2021/10/10 01:46:20;;;;;;;17.90;9.30;;;;;;;;;;5024958;28;20018;-61
2021/10/10 01:48:46;;;;;;;15.33;9.07;;;;;;;;;;5019084;28;20464;-60
2021/10/10 01:51:12;;;;;;;18.57;10.40;;;;;;;;;;5021915;28;20147;-60
2021/10/10 01:53:38;;;;;;;18.27;8.47;;;;;;;;;;5026079;28;20052;-61
2021/10/10 01:56:03;;;;;;;13.47;8.17;;;;;;;;;;5023244;28;20448;-62
2021/10/10 01:58:29;;;;;;;23.00;9.77;;;;;;;;;;5026809;28;20017;-61
2021/10/10 02:00:54;;;;;;;18.13;9.60;;;;;;;;;;5016398;28;20030;-59
2021/10/10 02:03:19;;;;;;;14.93;10.53;;;;;;;;;;5018776;28;20083;-61
2021/10/10 02:05:44;;;;;;;14.33;8.50;;;;;;;;;;5027557;28;20060;-60
2021/10/10 02:08:10;;;;;;;16.80;9.13;;;;;;;;;;5025475;28;20052;-62
2021/10/10 02:10:35;;;;;;;15.50;8.43;;;;;;;;;;5022326;28;20475;-62
2021/10/10 02:13:00;;;;;;;16.10;9.13;;;;;;;;;;5021373;28;20021;-62
2021/10/10 02:15:25;;;;;;;14.30;9.47;;;;;;;;;;5021260;28;20026;-62
2021/10/10 02:17:51;;;;;;;17.67;8.60;;;;;;;;;;5020114;28;20075;-60
2021/10/10 02:20:16;;;;;;;14.67;8.63;;;;;;;;;;5019822;28;20033;-62
2021/10/10 02:22:41;;;;;;;15.90;8.60;;;;;;;;;;5018863;28;20338;-63
2021/10/10 02:25:07;;;;;;;16.00;9.03;;;;;;;;;;5027187;28;20471;-62
2021/10/10 02:27:32;;;;;;;15.20;9.73;;;;;;;;;;5019616;28;20028;-62
2021/10/10 02:29:58;;;;;;;16.40;8.57;;;;;;;;;;5020152;28;20051;-62
2021/10/10 02:32:23;;;;;;;16.00;8.93;;;;;;;;;;5021967;28;20096;-62
2021/10/10 02:34:48;;;;;;;16.10;9.63;;;;;;;;;;5024013;28;20026;-60
2021/10/10 02:37:13;;;;;;;16.87;9.00;;;;;;;;;;5017846;28;20112;-59
2021/10/10 02:39:39;;;;;;;16.33;8.50;;;;;;;;;;5021244;28;20040;-63
2021/10/10 02:42:04;;;;;;;15.80;9.27;;;;;;;;;;5024650;28;20113;-61
2021/10/10 02:44:30;;;;;;;14.33;8.97;;;;;;;;;;5023699;28;20025;-61
2021/10/10 02:46:55;;;;;;;14.23;9.03;;;;;;;;;;5023631;28;20487;-60
2021/10/10 02:49:21;;;;;;;15.47;10.07;;;;;;;;;;5020622;28;20025;-60
2021/10/10 02:51:46;;;;;;;16.17;9.60;;;;;;;;;;5029747;28;20129;-61
2021/10/10 02:54:11;;;;;;;16.90;10.10;;;;;;;;;;5023507;28;20341;-60
2021/10/10 02:56:36;;;;;;;15.73;9.40;;;;;;;;;;5022511;28;20140;-62
2021/10/10 02:59:02;;;;;;;19.03;10.03;;;;;;;;;;5019838;28;20041;-59
2021/10/10 03:01:27;;;;;;;15.13;10.13;;;;;;;;;;5025293;28;20021;-61
2021/10/10 03:03:52;;;;;;;18.20;10.10;;;;;;;;;;5022058;28;20022;-60
2021/10/10 03:06:17;;;;;;;18.33;10.27;;;;;;;;;;5021649;28;20442;-64
2021/10/10 03:08:43;;;;;;;16.70;10.13;;;;;;;;;;5017425;28;20030;-60
2021/10/10 03:11:08;;;;;;;18.10;11.07;;;;;;;;;;5019264;28;20507;-61
2021/10/10 03:13:33;;;;;;;17.57;9.80;;;;;;;;;;5017129;28;20115;-60
2021/10/10 03:15:59;;;;;;;17.23;10.73;;;;;;;;;;5016406;28;20075;-59
2021/10/10 03:18:24;;;;;;;18.40;9.47;;;;;;;;;;5018732;28;20053;-61
2021/10/10 03:20:50;;;;;;;16.20;10.70;;;;;;;;;;5025502;28;20022;-61
2021/10/10 03:23:15;;;;;;;17.83;9.43;;;;;;;;;;5020724;28;20021;-61
2021/10/10 03:25:40;;;;;;;16.73;10.00;;;;;;;;;;5023601;28;20029;-61
2021/10/10 03:28:05;;;;;;;17.27;10.47;;;;;;;;;;5018480;28;20021;-62
2021/10/10 03:30:31;;;;;;;14.90;9.73;;;;;;;;;;5020112;28;20041;-61
2021/10/10 03:32:56;;;;;;;13.67;10.67;;;;;;;;;;5015774;28;20033;-61
2021/10/10 03:35:21;;;;;;;17.53;9.57;;;;;;;;;;5016113;28;20479;-61
2021/10/10 03:37:46;;;;;;;15.93;10.00;;;;;;;;;;5015590;28;20079;-60
2021/10/10 03:40:12;;;;;;;18.43;10.63;;;;;;;;;;5023515;28;20079;-61
2021/10/10 03:42:38;;;;;;;13.47;8.73;;;;;;;;;;5019268;28;20052;-61
2021/10/10 03:45:04;;;;;;;13.17;8.83;;;;;;;;;;5017001;28;20034;-59
2021/10/10 03:47:29;;;;;;;13.77;9.63;;;;;;;;;;5022518;28;20048;-60
2021/10/10 03:49:54;;;;;;;17.60;9.30;;;;;;;;;;5023132;28;20142;-61
2021/10/10 03:52:20;;;;;;;16.47;9.40;;;;;;;;;;5025465;28;20036;-62
2021/10/10 03:57:29;;;;;;;14.97;8.70;;;;;;;;;;5025446;28;20029;-61
2021/10/10 04:00:04;;;;;;;14.83;9.30;;;;;;;;;;5022470;28;20460;-61
2021/10/10 04:02:29;;;;;;;14.65;8.13;;;;;;;;;;5010298;28;20419;-61
2021/10/10 04:04:54;;;;;;;12.57;8.63;;;;;;;;;;5017273;28;20179;-60
2021/10/10 04:07:20;;;;;;;21.07;9.23;;;;;;;;;;5028373;28;20387;-60
2021/10/10 04:09:45;;;;;;;15.80;8.50;;;;;;;;;;5024913;28;20032;-61
2021/10/10 04:12:11;;;;;;;15.70;8.77;;;;;;;;;;5024349;28;20037;-61
2021/10/10 04:14:36;;;;;;;14.03;8.37;;;;;;;;;;5020253;28;20116;-61
2021/10/10 04:17:02;;;;;;;18.83;9.33;;;;;;;;;;5023605;28;20025;-61
2021/10/10 04:19:27;;;;;;;17.27;10.17;;;;;;;;;;5026119;28;20037;-61
2021/10/10 04:21:53;;;;;;;13.83;8.77;;;;;;;;;;5021268;28;20548;-61
2021/10/10 04:24:18;;;;;;;15.00;8.47;;;;;;;;;;5020748;28;20025;-60
2021/10/10 04:26:43;;;;;;;17.50;9.07;;;;;;;;;;5026261;28;20460;-61
2021/10/10 04:29:09;;;;;;;15.20;9.70;;;;;;;;;;5027858;28;20022;-62
2021/10/10 04:31:34;;;;;;;12.60;8.13;;;;;;;;;;5021781;28;20069;-61
2021/10/10 04:33:59;;;;;;;16.07;8.77;;;;;;;;;;5025341;28;20484;-61
2021/10/10 04:36:24;;;;;;;13.27;8.67;;;;;;;;;;5024910;28;20040;-61
2021/10/10 04:38:50;;;;;;;14.43;7.47;;;;;;;;;;5024504;28;20036;-59
2021/10/10 04:41:15;;;;;;;13.63;8.33;;;;;;;;;;5021482;28;20447;-61
2021/10/10 04:43:40;;;;;;;16.77;8.57;;;;;;;;;;5024489;28;20078;-61
2021/10/10 04:46:05;;;;;;;15.33;8.70;;;;;;;;;;5026862;28;20021;-62
2021/10/10 04:48:31;;;;;;;13.30;8.00;;;;;;;;;;5024215;28;20021;-61
2021/10/10 04:50:56;;;;;;;15.00;8.30;;;;;;;;;;5020397;28;20184;-62
2021/10/10 04:53:21;;;;;;;19.00;9.13;;;;;;;;;;5025447;28;20527;-62
2021/10/10 04:55:46;;;;;;;18.47;9.40;;;;;;;;;;5024869;28;20112;-62
2021/10/10 04:58:12;;;;;;;12.60;8.97;;;;;;;;;;5024884;28;20035;-61
2021/10/10 05:00:37;;;;;;;13.93;8.03;;;;;;;;;;5018672;28;20476;-62
2021/10/10 05:03:03;;;;;;;15.93;8.80;;;;;;;;;;5003071;28;20026;-59
2021/10/10 05:05:28;;;;;;;13.67;9.03;;;;;;;;;;5024543;28;20033;-62
2021/10/10 05:07:54;;;;;;;13.23;7.80;;;;;;;;;;5023929;28;20099;-62
2021/10/10 05:10:19;;;;;;;14.20;8.37;;;;;;;;;;5019637;28;20443;-59
2021/10/10 05:12:44;;;;;;;15.57;9.03;;;;;;;;;;5024502;28;20032;-62
2021/10/10 05:15:09;;;;;;;15.37;8.57;;;;;;;;;;5024612;28;20022;-61
2021/10/10 05:17:35;;;;;;;13.77;8.60;;;;;;;;;;5019559;28;20021;-61
2021/10/10 05:20:00;;;;;;;17.83;9.83;;;;;;;;;;5024695;28;20036;-62
2021/10/10 05:22:25;;;;;;;16.43;10.10;;;;;;;;;;5023629;28;20025;-60
2021/10/10 05:24:53;;;;;;;14.27;9.20;;;;;;;;;;5024023;28;20020;-61
2021/10/10 05:27:19;;;;;;;13.73;9.37;;;;;;;;;;5020729;28;20406;-62
2021/10/10 05:29:44;;;;;;;17.97;10.80;;;;;;;;;;5020661;28;20546;-60
2021/10/10 05:32:09;;;;;;;18.23;9.77;;;;;;;;;;5024791;28;20034;-63
2021/10/10 05:34:34;;;;;;;12.47;8.97;;;;;;;;;;5009447;28;20116;-61
2021/10/10 05:37:00;;;;;;;15.43;10.40;;;;;;;;;;5019148;28;20026;-61
2021/10/10 05:39:25;;;;;;;16.17;8.83;;;;;;;;;;5021453;28;20037;-60
2021/10/10 05:41:50;;;;;;;15.50;9.70;;;;;;;;;;5023902;28;20598;-61
2021/10/10 05:44:16;;;;;;;13.67;9.23;;;;;;;;;;5023331;28;20022;-61
2021/10/10 05:46:41;;;;;;;17.63;9.40;;;;;;;;;;5022179;28;20075;-62
2021/10/10 05:49:06;;;;;;;15.37;9.20;;;;;;;;;;5017496;28;20021;-62
2021/10/10 05:51:31;;;;;;;18.87;8.50;;;;;;;;;;5022948;28;20056;-61
2021/10/10 05:53:57;;;;;;;17.10;8.53;;;;;;;;;;5025564;28;20414;-61
2021/10/10 05:56:22;;;;;;;18.47;10.30;;;;;;;;;;5021465;28;20048;-62
2021/10/10 05:58:55;;;;;;;18.73;9.40;;;;;;;;;;5024290;28;20079;-62
2021/10/10 06:01:20;;;;;;;15.47;10.40;;;;;;;;;;5024622;28;20029;-64
2021/10/10 06:03:45;;;;;;;21.27;8.53;;;;;;;;;;5026485;28;20112;-62
2021/10/10 06:06:10;;;;;;;15.57;8.87;;;;;;;;;;5022441;28;20025;-61
2021/10/10 06:08:36;;;;;;;13.83;9.13;;;;;;;;;;5024243;28;20289;-62
2021/10/10 06:11:01;;;;;;;12.53;8.80;;;;;;;;;;5023166;28;20487;-61
2021/10/10 06:13:27;;;;;;;12.80;8.10;;;;;;;;;;5023909;28;20037;-62
2021/10/10 06:15:52;;;;;;;12.93;8.47;;;;;;;;;;5022293;28;20024;-63
2021/10/10 06:18:17;;;;;;;12.73;9.10;;;;;;;;;;5022336;28;20017;-63
2021/10/10 06:20:42;;;;;;;14.63;9.63;;;;;;;;;;5023398;28;20034;-63
2021/10/10 06:23:08;;;;;;;14.07;8.80;;;;;;;;;;5021253;28;20770;-63
2021/10/10 06:25:33;;;;;;;13.30;8.73;;;;;;;;;;5021510;28;20049;-64
2021/10/10 06:27:58;;;;;;;13.37;8.47;;;;;;;;;;5018556;28;20014;-65
2021/10/10 06:30:24;;;;;;;13.40;8.53;;;;;;;;;;5023176;28;20065;-63
2021/10/10 06:32:49;;;;;;;14.50;8.50;;;;;;;;;;5019558;28;20021;-63
2021/10/10 06:35:14;;;;;;;13.50;8.27;;;;;;;;;;5022280;28;20028;-62
2021/10/10 06:37:39;;;;;;;13.10;8.43;;;;;;;;;;5022652;28;20585;-63
2021/10/10 06:40:05;;;;;;;16.60;8.70;;;;;;;;;;5012918;28;20099;-64
2021/10/10 06:42:30;;;;;;;14.70;9.47;;;;;;;;;;5023311;28;20049;-63
2021/10/10 06:44:56;;;;;;;12.90;8.63;;;;;;;;;;5025713;28;20049;-63
2021/10/10 06:47:21;;;;;;;12.83;8.07;;;;;;;;;;5023671;28;20029;-62
2021/10/10 06:49:46;;;;;;;13.77;8.33;;;;;;;;;;5025028;28;20473;-64
2021/10/10 06:52:13;;;;;;;16.80;9.13;;;;;;;;;;5029447;28;20037;-64
2021/10/10 06:54:38;;;;;;;13.07;8.40;;;;;;;;;;5019300;28;20033;-64
2021/10/10 06:57:04;;;;;;;12.67;8.47;;;;;;;;;;5028511;28;20393;-64
2021/10/10 06:59:30;;;;;;;15.00;8.60;;;;;;;;;;5019654;28;20049;-63
2021/10/10 07:01:55;;;;;;;15.30;9.30;;;;;;;;;;5017574;28;20123;-64
2021/10/10 07:04:20;;;;;;;12.50;8.13;;;;;;;;;;5019346;28;20076;-63
2021/10/10 07:06:45;;;;;;;11.90;8.43;;;;;;;;;;5024212;28;20037;-64
2021/10/10 07:09:12;;;;;;;14.20;9.37;;;;;;;;;;5018737;28;20032;-64
2021/10/10 07:11:37;;;;;;;15.53;9.63;;;;;;;;;;5014673;28;20029;-64
2021/10/10 07:14:03;;;;;;;14.07;8.33;;;;;;;;;;5015729;28;20017;-64
2021/10/10 07:16:29;;;;;;;13.70;8.70;;;;;;;;;;5016667;28;20033;-65
2021/10/10 07:18:55;;;;;;;17.60;10.40;;;;;;;;;;5023975;28;20451;-64
2021/10/10 07:21:40;;;;;;;13.77;9.37;;;;;;;;;;5018903;28;20037;-65
2021/10/10 07:26:49;;;;;;;14.93;8.40;;;;;;;;;;5020284;28;20083;-65
2021/10/10 07:29:15;;;;;;;16.23;9.17;;;;;;;;;;5017334;28;20029;-65
2021/10/10 07:31:40;;;;;;;10.40;8.27;;;;;;;;;;5017173;28;20100;-65
2021/10/10 07:34:05;;;;;;;12.47;8.43;;;;;;;;;;5020889;28;20049;-65
2021/10/10 07:36:30;;;;;;;13.53;8.77;;;;;;;;;;5018698;28;20024;-65
2021/10/10 07:38:56;;;;;;;15.57;9.17;;;;;;;;;;5018530;28;20111;-65
2021/10/10 07:41:21;;;;;;;13.43;8.70;;;;;;;;;;5022148;28;20037;-65
2021/10/10 07:43:46;;;;;;;14.50;9.33;;;;;;;;;;5025240;28;20116;-65
2021/10/10 07:46:33;;;;;;;14.37;9.73;;;;;;;;;;5022756;28;20045;-64
2021/10/10 07:48:58;;;;;;;16.77;9.80;;;;;;;;;;5026689;28;20116;-66
2021/10/10 07:51:27;;;;;;;16.27;9.43;;;;;;;;;;5020175;28;20149;-64
2021/10/10 07:53:53;;;;;;;16.53;9.30;;;;;;;;;;5022117;28;20087;-65
2021/10/10 07:56:19;;;;;;;16.20;9.73;;;;;;;;;;5021508;28;20033;-65
2021/10/10 07:58:44;;;;;;;17.53;9.17;;;;;;;;;;5022994;28;20042;-65
2021/10/10 08:01:09;;;;;;;15.03;9.17;;;;;;;;;;5020487;28;20091;-66
2021/10/10 08:03:35;;;;;;;13.37;8.57;;;;;;;;;;5027604;28;20622;-65
2021/10/10 08:06:00;;;;;;;14.57;9.47;;;;;;;;;;5028144;28;20028;-65
2021/10/10 08:08:26;;;;;;;15.60;9.93;;;;;;;;;;5020428;28;20021;-65
2021/10/10 08:10:51;;;;;;;13.87;9.37;;;;;;;;;;5018637;28;20040;-65
2021/10/10 08:13:16;;;;;;;14.80;9.67;;;;;;;;;;5027042;28;20026;-66
2021/10/10 08:15:42;;;;;;;16.23;8.67;;;;;;;;;;5030168;28;20029;-65
2021/10/10 08:18:07;;;;;;;17.67;9.57;;;;;;;;;;5022343;28;20390;-65
2021/10/10 08:20:32;;;;;;;12.57;9.43;;;;;;;;;;5021938;28;20022;-66
2021/10/10 08:22:58;;;;;;;13.33;9.33;;;;;;;;;;5026640;28;20041;-65
2021/10/10 08:25:23;;;;;;;12.73;9.23;;;;;;;;;;5014839;28;20045;-66
2021/10/10 08:27:48;;;;;;;18.80;10.23;;;;;;;;;;5020150;28;20039;-66
2021/10/10 08:30:15;;;;;;;11.80;8.90;;;;;;;;;;5021855;28;20487;-65
2021/10/10 08:32:41;;;;;;;12.80;9.53;;;;;;;;;;5024170;28;20742;-66
2021/10/10 08:35:07;;;;;;;16.00;9.33;;;;;;;;;;5028988;28;20021;-66
2021/10/10 08:37:33;;;;;;;17.80;11.57;;;;;;;;;;5025913;28;20038;-65
2021/10/10 08:39:58;;;;;;;19.33;11.07;;;;;;;;;;5029345;28;20468;-65
2021/10/10 08:42:44;;;;;;;16.10;11.07;;;;;;;;;;5021525;28;20337;-65
2021/10/10 08:45:12;;;;;;;15.52;9.80;;;;;;;;;;5022827;28;20045;-66
2021/10/10 08:47:43;;;;;;;15.83;10.30;;;;;;;;;;5021660;28;20091;-65
2021/10/10 08:50:19;;;;;;;18.30;10.70;;;;;;;;;;5025009;28;20056;-65
2021/10/10 08:52:45;;;;;;;17.77;10.37;;;;;;;;;;5024775;28;20030;-66
2021/10/10 08:55:11;;;;;;;14.60;9.97;;;;;;;;;;5025099;28;20029;-64
2021/10/10 08:57:37;;;;;;;14.97;9.77;;;;;;;;;;5014839;28;20029;-65
2021/10/10 09:00:07;;;;;;;15.20;10.20;;;;;;;;;;5023269;28;20125;-65
2021/10/10 09:02:33;;;;;;;15.00;9.27;;;;;;;;;;5005317;28;20527;-65
2021/10/10 09:05:04;;;;;;;14.77;9.63;;;;;;;;;;5027812;28;20057;-65
2021/10/10 09:07:29;;;;;;;15.63;9.20;;;;;;;;;;5041980;28;20026;-65
2021/10/10 09:09:57;;;;;;;17.13;11.23;;;;;;;;;;5034772;28;20049;-65
2021/10/10 09:12:27;;;;;;;18.57;11.00;;;;;;;;;;5027773;28;20554;-66
2021/10/10 09:14:52;;;;;;;14.70;9.60;;;;;;;;;;5022593;28;20040;-66
2021/10/10 09:17:21;;;;;;;14.63;10.20;;;;;;;;;;5021629;28;20013;-66
2021/10/10 09:19:52;;;;;;;14.17;9.27;;;;;;;;;;5025757;28;20018;-66
2021/10/10 09:22:18;;;;;;;13.03;9.47;;;;;;;;;;5028030;28;20535;-65
2021/10/10 09:24:43;;;;;;;15.33;9.87;;;;;;;;;;5019377;28;20024;-66
2021/10/10 09:27:13;;;;;;;12.73;9.13;;;;;;;;;;5023970;28;20049;-66
2021/10/10 09:29:39;;;;;;;18.80;10.50;;;;;;;;;;5023919;28;20075;-64
2021/10/10 09:32:09;;;;;;;17.30;9.50;;;;;;;;;;5025699;28;20151;-65
2021/10/10 09:34:38;;;;;;;19.00;11.20;;;;;;;;;;5019201;28;20029;-64
2021/10/10 09:37:04;;;;;;;19.70;9.85;;;;;;;;;;5021981;28;20078;-64
2021/10/10 09:39:58;;;;;;;15.13;9.80;;;;;;;;;;5025884;28;20103;-64
2021/10/10 09:42:41;;;;;;;15.48;9.95;;;;;;;;;;5010910;28;20026;-65
2021/10/10 09:45:20;;;;;;;16.27;10.27;;;;;;;;;;5020151;28;20502;-64
2021/10/10 09:47:46;;;;;;;16.53;9.60;;;;;;;;;;5027140;28;20383;-64
2021/10/10 09:50:11;;;;;;;16.85;10.50;;;;;;;;;;5023593;28;20045;-64
2021/10/10 09:52:36;;;;;;;15.98;10.15;;;;;;;;;;5025249;28;20100;-64
2021/10/10 09:55:02;;;;;;;15.20;10.35;;;;;;;;;;5021797;28;20451;-63
2021/10/10 09:57:27;;;;;;;18.50;11.23;;;;;;;;;;5026491;28;20530;-64
2021/10/10 09:59:53;;;;;;;17.65;11.35;;;;;;;;;;5026728;28;20109;-64
2021/10/10 10:02:18;;;;;;;21.05;11.52;;;;;;;;;;5022108;28;20018;-64
2021/10/10 10:04:49;;;;;;;16.73;10.85;;;;;;;;;;5022932;28;20032;-63
2021/10/10 10:07:19;;;;;;;13.48;9.77;;;;;;;;;;5022813;28;20025;-64
2021/10/10 10:09:50;;;;;;;18.63;11.35;;;;;;;;;;5024899;28;20060;-64
2021/10/10 10:12:16;;;;;;;18.35;10.68;;;;;;;;;;5020848;28;20021;-64
2021/10/10 10:14:42;;;;;;;20.98;10.75;;;;;;;;;;5025286;28;20021;-64
2021/10/10 10:17:07;;;;;;;13.73;10.45;;;;;;;;;;5019848;28;20096;-64
2021/10/10 10:19:33;;;;;;;17.75;9.70;;;;;;;;;;5019700;28;20025;-65
2021/10/10 10:21:58;;;;;;;19.45;10.38;;;;;;;;;;5004343;28;20034;-64
2021/10/10 10:24:25;;;;;;;23.33;10.63;;;;;;;;;;5021208;28;20025;-64
2021/10/10 10:26:51;;;;;;;19.30;10.32;;;;;;;;;;5021425;28;20198;-64
2021/10/10 10:29:24;;;;;;;17.05;10.05;;;;;;;;;;5019885;28;20022;-64
2021/10/10 10:31:50;;;;;;;16.50;10.32;;;;;;;;;;5009941;28;20061;-64
2021/10/10 10:34:17;;;;;;;20.65;10.50;;;;;;;;;;5015239;28;20075;-64
2021/10/10 10:36:48;;;;;;;19.55;10.05;;;;;;;;;;5017532;28;20034;-64
2021/10/10 10:39:32;;;;;;;18.95;10.43;;;;;;;;;;5022249;28;20022;-64
2021/10/10 10:41:58;;;;;;;19.88;11.48;;;;;;;;;;5019754;28;20029;-64
2021/10/10 10:44:42;;;;;;;18.02;11.25;;;;;;;;;;5010309;28;20057;-64
2021/10/10 10:47:27;;;;;;;22.83;13.30;;;;;;;;;;5013623;28;20053;-64
2021/10/10 10:49:53;;;;;;;15.90;10.02;;;;;;;;;;5015634;28;20053;-64
2021/10/10 10:52:34;;;;;;;18.25;11.23;;;;;;;;;;5021768;28;20029;-62
2021/10/10 10:55:05;;;;;;;23.63;11.40;;;;;;;;;;5017423;28;20124;-62
2021/10/10 10:57:30;;;;;;;27.67;12.30;;;;;;;;;;5020913;28;20025;-63
2021/10/10 11:00:06;;;;;;;25.25;13.07;;;;;;;;;;5019306;28;20017;-63
2021/10/10 11:03:01;;;;;;;18.50;11.25;;;;;;;;;;5019501;28;20014;-62
2021/10/10 11:05:45;;;;;;;17.58;11.55;;;;;;;;;;5011271;28;20064;-64
2021/10/10 11:08:14;;;;;;;18.42;11.35;;;;;;;;;;5020916;28;20124;-64
2021/10/10 11:10:39;;;;;;;14.80;10.27;;;;;;;;;;5020499;28;20523;-62
2021/10/10 11:13:07;;;;;;;18.60;11.15;;;;;;;;;;5025395;28;20045;-64
2021/10/10 11:15:48;;;;;;;16.27;10.65;;;;;;;;;;5023748;28;20014;-64
2021/10/10 11:18:16;;;;;;;16.13;9.85;;;;;;;;;;5015865;28;20021;-64
2021/10/10 11:20:47;;;;;;;20.08;11.27;;;;;;;;;;5017356;28;20021;-64
2021/10/10 11:23:13;;;;;;;17.17;10.45;;;;;;;;;;5026606;28;20439;-65
2021/10/10 11:25:38;;;;;;;20.15;11.40;;;;;;;;;;5025218;28;20045;-64
2021/10/10 11:28:03;;;;;;;19.50;11.75;;;;;;;;;;5014910;28;20049;-65
2021/10/10 11:30:30;;;;;;;18.88;10.80;;;;;;;;;;5009858;28;20056;-63
2021/10/10 11:32:56;;;;;;;16.85;11.32;;;;;;;;;;5013600;28;20541;-65
2021/10/10 11:35:22;;;;;;;15.13;10.68;;;;;;;;;;5013411;28;20041;-63
2021/10/10 11:38:06;;;;;;;18.13;12.27;;;;;;;;;;5010120;28;20042;-63
2021/10/10 11:40:31;;;;;;;26.45;12.20;;;;;;;;;;5012778;28;20037;-64
2021/10/10 11:42:58;;;;;;;19.27;12.10;;;;;;;;;;5015656;28;20040;-63
2021/10/10 11:45:24;;;;;;;18.63;11.77;;;;;;;;;;5015449;28;20712;-64
2021/10/10 11:47:51;;;;;;;20.83;10.68;;;;;;;;;;5014220;28;20044;-63
2021/10/10 11:50:16;;;;;;;16.52;10.98;;;;;;;;;;5021309;28;20033;-63
2021/10/10 11:52:54;;;;;;;21.08;13.05;;;;;;;;;;5022535;28;20490;-64
2021/10/10 11:57:46;;;;;;;18.40;10.23;;;;;;;;;;5024329;28;20099;-64
2021/10/10 12:00:12;;;;;;;18.55;10.18;;;;;;;;;;5023748;28;20017;-64
2021/10/10 12:02:41;;;;;;;23.92;12.05;;;;;;;;;;5018717;28;20498;-64
2021/10/10 12:05:08;;;;;;;18.65;10.18;;;;;;;;;;5022946;28;20025;-64
2021/10/10 12:07:34;;;;;;;16.40;10.98;;;;;;;;;;5020930;28;20033;-65
2021/10/10 12:10:00;;;;;;;20.17;10.23;;;;;;;;;;5023584;28;20371;-63
2021/10/10 12:12:25;;;;;;;20.10;11.13;;;;;;;;;;5018942;28;20029;-64
2021/10/10 12:14:52;;;;;;;19.15;10.52;;;;;;;;;;5021179;28;20489;-65
2021/10/10 12:17:32;;;;;;;17.67;11.70;;;;;;;;;;5021382;28;20009;-64
2021/10/10 12:19:59;;;;;;;18.50;11.07;;;;;;;;;;5023467;28;20056;-64
2021/10/10 12:22:26;;;;;;;14.93;10.07;;;;;;;;;;5010571;28;20057;-65
2021/10/10 12:24:51;;;;;;;16.05;9.85;;;;;;;;;;5011515;28;20021;-64
2021/10/10 12:27:26;;;;;;;14.15;11.02;;;;;;;;;;5024382;28;20027;-65
2021/10/10 12:29:51;;;;;;;;;;;;;;;;;;5024155;28;20398;-64
2021/10/10 12:32:21;;;;;;;19.83;9.68;;;;;;;;;;5022982;28;19919;-64
2021/10/10 12:34:47;;;;;;;16.58;10.02;;;;;;;;;;5025674;28;20044;-65
2021/10/10 12:37:20;;;;;;;18.25;10.68;;;;;;;;;;5023647;28;20014;-62
2021/10/10 12:39:45;;;;;;;17.40;10.35;;;;;;;;;;5014731;28;20827;-63
2021/10/10 12:42:11;;;;;;;17.98;9.95;;;;;;;;;;5021248;28;20054;-63
2021/10/10 12:44:37;;;;;;;15.50;10.98;;;;;;;;;;5029896;28;20121;-64
2021/10/10 12:47:03;;;;;;;15.20;10.52;;;;;;;;;;5024100;28;20018;-63
2021/10/10 12:49:31;;;;;;;18.40;10.57;;;;;;;;;;5018126;28;20025;-62
2021/10/10 12:51:57;;;;;;;25.25;11.88;;;;;;;;;;5019751;28;20120;-64
2021/10/10 12:54:23;;;;;;;23.02;14.15;;;;;;;;;;5021790;28;20065;-64
2021/10/10 12:57:02;;;;;;;15.88;10.65;;;;;;;;;;5022746;28;20037;-63
2021/10/10 12:59:28;;;;;;;17.38;11.13;;;;;;;;;;5016004;28;20029;-64
2021/10/10 13:01:53;;;;;;;278.38;250.27;;;;;;;;;;5020634;28;20032;-64
2021/10/10 13:04:19;;;;;;;58.83;53.05;;;;;;;;;;5019046;28;20025;-62
2021/10/10 13:06:44;;;;;;;36.35;32.85;;;;;;;;;;5020780;28;20030;-63
2021/10/10 13:09:10;;;;;;;313.40;285.05;;;;;;;;;;5002726;28;20013;-62
2021/10/10 13:11:36;;;;;;;275.90;253.88;;;;;;;;;;5017766;28;20538;-62
2021/10/10 13:14:01;;;;;;;74.93;66.80;;;;;;;;;;5018303;28;20112;-63
2021/10/10 13:16:26;;;;;;;38.47;33.70;;;;;;;;;;5017543;28;20083;-63
2021/10/10 13:18:52;;;;;;;32.53;26.10;;;;;;;;;;5019966;28;20420;-62
2021/10/10 13:21:17;;;;;;;27.95;20.90;;;;;;;;;;5018708;28;20539;-64
2021/10/10 13:23:42;;;;;;;257.83;228.88;;;;;;;;;;5018100;28;20021;-61
2021/10/10 13:26:07;;;;;;;19.63;11.95;;;;;;;;;;5018457;28;20079;-61
2021/10/10 13:28:33;;;;;;;16.77;9.32;;;;;;;;;;5021176;28;20024;-61
2021/10/10 13:31:00;;;;;;;19.45;14.20;;;;;;;;;;5019354;28;20029;-61
2021/10/10 13:33:29;;;;;;;19.60;10.32;;;;;;;;;;5018889;28;20057;-61
2021/10/10 13:35:55;;;;;;;169.45;153.13;;;;;;;;;;5016685;28;20719;-61
2021/10/10 13:38:23;;;;;;;13.60;8.90;;;;;;;;;;5017109;28;20040;-62
2021/10/10 13:40:49;;;;;;;16.33;9.05;;;;;;;;;;5015993;28;20034;-62
2021/10/10 13:43:15;;;;;;;78.82;66.63;;;;;;;;;;5018326;28;20387;-61
2021/10/10 13:45:40;;;;;;;18.25;10.05;;;;;;;;;;5018061;28;20040;-62
2021/10/10 13:48:06;;;;;;;52.50;40.00;;;;;;;;;;5017583;28;20048;-62
2021/10/10 13:50:33;;;;;;;22.55;12.77;;;;;;;;;;5017535;28;20046;-61
2021/10/10 13:53:02;;;;;;;26.88;17.33;;;;;;;;;;5016447;28;20025;-60
2021/10/10 13:55:27;;;;;;;232.57;217.00;;;;;;;;;;5016569;28;20470;-60
2021/10/10 13:57:52;;;;;;;12.38;8.50;;;;;;;;;;5016913;28;20132;-61
2021/10/10 14:00:17;;;;;;;69.93;62.60;;;;;;;;;;5017045;28;20022;-61
2021/10/10 14:02:43;;;;;;;12.80;8.18;;;;;;;;;;5016644;28;20026;-62
2021/10/10 14:05:08;;;;;;;24.25;17.77;;;;;;;;;;5018680;28;20116;-62
2021/10/10 14:07:36;;;;;;;16.38;9.00;;;;;;;;;;5020965;28;20022;-63
2021/10/10 14:10:01;;;;;;;132.57;119.95;;;;;;;;;;5018299;28;20036;-63
2021/10/10 14:12:27;;;;;;;19.23;10.32;;;;;;;;;;5015625;28;20034;-63
2021/10/10 14:14:55;;;;;;;13.18;8.65;;;;;;;;;;5020584;28;20028;-62
2021/10/10 14:17:20;;;;;;;14.43;8.48;;;;;;;;;;5020622;28;20597;-63
2021/10/10 14:19:46;;;;;;;17.23;9.02;;;;;;;;;;5025450;28;20025;-62
2021/10/10 14:22:11;;;;;;;15.30;8.88;;;;;;;;;;5021242;28;20091;-62
2021/10/10 14:24:37;;;;;;;18.17;9.55;;;;;;;;;;5021260;28;20071;-62
2021/10/10 14:27:02;;;;;;;15.65;9.07;;;;;;;;;;5018420;28;20017;-61
2021/10/10 14:29:27;;;;;;;237.90;208.80;;;;;;;;;;5014492;28;20073;-62